createdAt,value
2023-05-04T00:00:05.219Z,0.00
2023-05-04T00:00:56.113Z,0.00
2023-05-04T00:01:46.896Z,0.00
2023-05-04T00:02:37.784Z,0.00
2023-05-04T00:03:28.626Z,0.00
2023-05-04T00:04:19.577Z,0.00
2023-05-04T00:05:10.341Z,0.00
2023-05-04T00:06:01.147Z,0.00
2023-05-04T00:06:51.906Z,0.00
2023-05-04T00:07:42.693Z,0.00
2023-05-04T00:08:33.510Z,0.00
2023-05-04T00:09:24.260Z,0.00
2023-05-04T00:10:15.066Z,0.00
2023-05-04T00:11:05.869Z,0.00
2023-05-04T00:11:56.652Z,0.00
2023-05-04T00:12:47.455Z,0.00
2023-05-04T00:13:38.242Z,0.00
2023-05-04T00:14:29.027Z,0.00
2023-05-04T00:15:19.798Z,0.00
2023-05-04T00:16:11.131Z,0.00
2023-05-04T00:17:01.323Z,0.00
2023-05-04T00:17:52.162Z,0.00
2023-05-04T00:18:42.905Z,0.00
2023-05-04T00:19:33.688Z,0.00
2023-05-04T00:20:24.482Z,0.00
2023-05-04T00:21:15.255Z,0.00
2023-05-04T00:22:06.044Z,0.00
2023-05-04T00:22:56.830Z,0.00
2023-05-04T00:23:47.643Z,0.00
2023-05-04T00:24:38.401Z,0.00
2023-05-04T00:25:29.188Z,0.00
2023-05-04T00:26:19.973Z,0.00
2023-05-04T00:27:10.766Z,0.00
2023-05-04T00:28:01.554Z,0.00
2023-05-04T00:28:52.331Z,0.00
2023-05-04T00:29:43.114Z,0.00
2023-05-04T00:30:33.903Z,0.00
2023-05-04T00:31:24.725Z,0.00
2023-05-04T00:32:15.502Z,0.00
2023-05-04T00:33:06.316Z,0.00
2023-05-04T00:33:57.143Z,0.00
2023-05-04T00:34:47.907Z,0.00
2023-05-04T00:35:38.689Z,0.00
2023-05-04T00:36:29.481Z,0.00
2023-05-04T00:37:20.277Z,0.00
2023-05-04T00:38:11.053Z,0.00
2023-05-04T00:39:01.871Z,0.00
2023-05-04T00:39:53.172Z,0.00
2023-05-04T00:40:43.288Z,0.00
2023-05-04T00:41:34.098Z,0.00
2023-05-04T00:42:24.884Z,0.00
2023-05-04T00:43:15.653Z,0.00
2023-05-04T00:44:06.445Z,0.00
2023-05-04T00:44:57.222Z,0.00
2023-05-04T00:45:48.016Z,0.00
2023-05-04T00:46:38.876Z,0.00
2023-05-04T00:47:29.628Z,0.00
2023-05-04T00:48:20.404Z,0.00
2023-05-04T00:49:11.192Z,0.00
2023-05-04T00:50:02.300Z,0.00
2023-05-04T00:50:52.647Z,0.00
2023-05-04T00:51:43.479Z,0.00
2023-05-04T00:52:34.239Z,0.00
2023-05-04T00:53:25.018Z,0.00
2023-05-04T00:54:15.824Z,0.00
2023-05-04T00:55:06.586Z,0.00
2023-05-04T00:55:57.368Z,0.00
2023-05-04T00:56:48.160Z,0.00
2023-05-04T00:57:38.953Z,0.00
2023-05-04T00:58:29.734Z,0.00
2023-05-04T00:59:20.530Z,0.00
2023-05-04T01:00:11.306Z,0.00
2023-05-04T01:01:02.140Z,0.00
2023-05-04T01:01:52.907Z,0.00
2023-05-04T01:02:43.708Z,0.00
2023-05-04T01:03:34.506Z,0.00
2023-05-04T01:04:25.257Z,0.00
2023-05-04T01:05:16.043Z,0.00
2023-05-04T01:06:06.849Z,0.00
2023-05-04T01:06:57.625Z,0.00
2023-05-04T01:07:48.404Z,0.00
2023-05-04T01:08:39.204Z,0.00
2023-05-04T01:09:30.004Z,0.00
2023-05-04T01:10:20.770Z,0.00
2023-05-04T01:11:11.564Z,0.00
2023-05-04T01:12:02.359Z,0.00
2023-05-04T01:12:53.147Z,0.00
2023-05-04T01:13:43.938Z,0.00
2023-05-04T01:14:34.743Z,0.00
2023-05-04T01:15:25.559Z,0.00
2023-05-04T01:16:16.358Z,0.00
2023-05-04T01:17:07.274Z,0.00
2023-05-04T01:17:58.161Z,0.00
2023-05-04T01:18:48.912Z,0.00
2023-05-04T01:19:39.701Z,0.00
2023-05-04T01:20:30.488Z,0.00
2023-05-04T01:21:21.277Z,0.00
2023-05-04T01:22:12.063Z,0.00
2023-05-04T01:23:02.849Z,0.00
2023-05-04T01:23:53.642Z,0.00
2023-05-04T01:24:44.455Z,0.00
2023-05-04T01:25:35.246Z,0.00
2023-05-04T01:26:26.007Z,0.00
2023-05-04T01:27:16.798Z,0.00
2023-05-04T01:28:07.604Z,0.00
2023-05-04T01:28:58.373Z,0.00
2023-05-04T01:29:49.151Z,0.00
2023-05-04T01:30:39.977Z,0.00
2023-05-04T01:31:30.821Z,0.00
2023-05-04T01:32:21.590Z,0.00
2023-05-04T01:33:12.439Z,0.00
2023-05-04T01:34:03.189Z,0.00
2023-05-04T01:34:53.978Z,0.00
2023-05-04T01:35:44.768Z,0.00
2023-05-04T01:36:35.579Z,0.00
2023-05-04T01:37:26.357Z,0.00
2023-05-04T01:38:17.140Z,0.00
2023-05-04T01:39:07.942Z,0.00
2023-05-04T01:39:58.735Z,0.00
2023-05-04T01:40:49.510Z,0.00
2023-05-04T01:41:40.284Z,0.00
2023-05-04T01:42:31.074Z,0.00
2023-05-04T01:43:21.879Z,0.00
2023-05-04T01:44:12.649Z,0.00
2023-05-04T01:45:03.460Z,0.00
2023-05-04T01:45:54.300Z,0.00
2023-05-04T01:46:45.136Z,0.00
2023-05-04T01:47:35.966Z,0.00
2023-05-04T01:48:28.292Z,0.00
2023-05-04T01:49:17.875Z,0.00
2023-05-04T01:50:08.650Z,0.00
2023-05-04T01:50:59.448Z,0.00
2023-05-04T01:51:50.230Z,0.00
2023-05-04T01:52:41.029Z,0.00
2023-05-04T01:53:31.805Z,0.00
2023-05-04T01:54:22.595Z,0.00
2023-05-04T01:55:13.430Z,0.00
2023-05-04T01:56:04.172Z,0.00
2023-05-04T01:56:54.962Z,0.00
2023-05-04T01:57:45.763Z,0.00
2023-05-04T01:58:36.529Z,0.00
2023-05-04T01:59:27.324Z,0.00
2023-05-04T02:00:18.135Z,0.00
2023-05-04T02:01:08.934Z,0.00
2023-05-04T02:01:59.777Z,0.00
2023-05-04T02:02:50.631Z,0.00
2023-05-04T02:03:41.553Z,0.00
2023-05-04T02:04:32.304Z,0.00
2023-05-04T02:05:23.091Z,0.00
2023-05-04T02:06:13.873Z,0.00
2023-05-04T02:07:04.666Z,0.00
2023-05-04T02:07:55.464Z,0.00
2023-05-04T02:08:46.228Z,0.00
2023-05-04T02:09:37.022Z,0.00
2023-05-04T02:10:27.824Z,0.00
2023-05-04T02:11:18.602Z,0.00
2023-05-04T02:12:09.389Z,0.00
2023-05-04T02:13:00.215Z,0.00
2023-05-04T02:13:50.961Z,0.00
2023-05-04T02:14:41.773Z,0.00
2023-05-04T02:15:32.539Z,0.00
2023-05-04T02:16:23.389Z,0.00
2023-05-04T02:17:14.130Z,0.00
2023-05-04T02:18:04.987Z,0.00
2023-05-04T02:18:55.720Z,0.00
2023-05-04T02:19:46.513Z,0.00
2023-05-04T02:20:37.293Z,0.00
2023-05-04T02:21:28.086Z,0.00
2023-05-04T02:22:18.878Z,0.00
2023-05-04T02:23:09.694Z,0.00
2023-05-04T02:24:00.473Z,0.00
2023-05-04T02:24:51.265Z,0.00
2023-05-04T02:25:42.074Z,0.00
2023-05-04T02:26:32.836Z,0.00
2023-05-04T02:27:23.616Z,0.00
2023-05-04T02:28:14.405Z,0.00
2023-05-04T02:29:05.197Z,0.00
2023-05-04T02:29:55.986Z,0.00
2023-05-04T02:30:46.766Z,0.00
2023-05-04T02:31:37.611Z,0.00
2023-05-04T02:32:28.366Z,0.00
2023-05-04T02:33:19.141Z,0.00
2023-05-04T02:34:09.938Z,0.00
2023-05-04T02:35:00.745Z,0.00
2023-05-04T02:35:51.492Z,0.00
2023-05-04T02:36:42.299Z,0.00
2023-05-04T02:37:33.085Z,0.00
2023-05-04T02:38:23.862Z,0.00
2023-05-04T02:39:14.646Z,0.00
2023-05-04T02:40:05.754Z,0.00
2023-05-04T02:40:56.777Z,0.00
2023-05-04T02:41:47.512Z,0.00
2023-05-04T02:42:38.305Z,0.00
2023-05-04T02:43:29.103Z,0.00
2023-05-04T02:44:19.895Z,0.00
2023-05-04T02:45:10.671Z,0.00
2023-05-04T02:46:01.495Z,0.00
2023-05-04T02:46:52.251Z,0.00
2023-05-04T02:47:43.090Z,0.00
2023-05-04T02:48:33.774Z,0.00
2023-05-04T02:49:24.437Z,0.00
2023-05-04T02:50:15.628Z,0.00
2023-05-04T02:51:06.681Z,0.00
2023-05-04T02:51:57.431Z,0.00
2023-05-04T02:52:48.586Z,0.00
2023-05-04T02:53:39.368Z,0.00
2023-05-04T02:54:30.136Z,0.00
2023-05-04T02:55:20.906Z,0.00
2023-05-04T02:56:11.760Z,0.00
2023-05-04T02:57:02.470Z,0.00
2023-05-04T02:57:53.241Z,0.00
2023-05-04T02:58:44.013Z,0.00
2023-05-04T02:59:34.769Z,0.00
2023-05-04T03:00:25.542Z,0.00
2023-05-04T03:01:16.330Z,0.00
2023-05-04T03:02:07.101Z,0.00
2023-05-04T03:02:57.879Z,0.00
2023-05-04T03:03:48.783Z,1.00
2023-05-04T03:04:39.663Z,1.00
2023-05-04T03:05:30.536Z,1.00
2023-05-04T03:06:21.433Z,1.00
2023-05-04T03:07:12.281Z,1.00
2023-05-04T03:08:03.152Z,1.00
2023-05-04T03:08:54.332Z,0.00
2023-05-04T03:09:47.359Z,0.00
2023-05-04T03:10:35.892Z,0.00
2023-05-04T03:11:26.785Z,0.00
2023-05-04T03:12:17.434Z,2.00
2023-05-04T03:13:08.575Z,0.00
2023-05-04T03:13:59.322Z,1.00
2023-05-04T03:14:50.189Z,1.00
2023-05-04T03:15:41.505Z,0.00
2023-05-04T03:16:32.275Z,6.00
2023-05-04T03:17:23.104Z,3.00
2023-05-04T03:18:14.059Z,1.00
2023-05-04T03:19:04.890Z,5.00
2023-05-04T03:19:55.760Z,4.00
2023-05-04T03:20:46.635Z,3.00
2023-05-04T03:21:37.528Z,5.00
2023-05-04T03:22:28.406Z,2.00
2023-05-04T03:23:19.284Z,5.00
2023-05-04T03:24:10.148Z,4.00
2023-05-04T03:25:01.020Z,4.00
2023-05-04T03:25:51.888Z,5.00
2023-05-04T03:26:42.788Z,4.00
2023-05-04T03:27:33.654Z,8.00
2023-05-04T03:28:24.525Z,5.00
2023-05-04T03:29:15.410Z,12.00
2023-05-04T03:30:06.588Z,12.00
2023-05-04T03:30:56.987Z,15.00
2023-05-04T03:31:47.960Z,13.00
2023-05-04T03:32:38.850Z,14.00
2023-05-04T03:33:29.695Z,17.00
2023-05-04T03:34:20.598Z,21.00
2023-05-04T03:35:11.462Z,21.00
2023-05-04T03:36:02.357Z,23.00
2023-05-04T03:36:53.245Z,17.00
2023-05-04T03:37:44.142Z,17.00
2023-05-04T03:38:35.014Z,22.00
2023-05-04T03:39:25.910Z,20.00
2023-05-04T03:40:16.791Z,23.00
2023-05-04T03:41:07.686Z,27.00
2023-05-04T03:41:58.599Z,24.00
2023-05-04T03:42:49.486Z,30.00
2023-05-04T03:43:40.354Z,30.00
2023-05-04T03:44:31.238Z,33.00
2023-05-04T03:45:22.118Z,37.00
2023-05-04T03:46:13.059Z,35.00
2023-05-04T03:47:03.917Z,38.00
2023-05-04T03:47:54.853Z,41.00
2023-05-04T03:48:45.686Z,43.00
2023-05-04T03:49:36.567Z,45.00
2023-05-04T03:50:27.449Z,50.00
2023-05-04T03:51:18.326Z,47.00
2023-05-04T03:52:09.217Z,52.00
2023-05-04T03:53:00.182Z,57.00
2023-05-04T03:53:51.028Z,57.00
2023-05-04T03:54:41.913Z,67.00
2023-05-04T03:55:32.796Z,64.00
2023-05-04T03:56:23.701Z,70.00
2023-05-04T03:57:14.598Z,70.00
2023-05-04T03:58:05.452Z,77.00
2023-05-04T03:58:56.334Z,67.00
2023-05-04T03:59:47.216Z,66.00
2023-05-04T04:00:38.100Z,58.00
2023-05-04T04:01:28.996Z,66.00
2023-05-04T04:02:19.911Z,66.00
2023-05-04T04:03:11.018Z,89.00
2023-05-04T04:04:01.623Z,98.00
2023-05-04T04:04:52.554Z,97.00
2023-05-04T04:05:43.436Z,99.00
2023-05-04T04:06:34.326Z,107.00
2023-05-04T04:07:25.224Z,106.00
2023-05-04T04:08:16.146Z,110.00
2023-05-04T04:09:07.023Z,115.00
2023-05-04T04:09:57.928Z,116.00
2023-05-04T04:10:48.828Z,122.00
2023-05-04T04:11:39.720Z,124.00
2023-05-04T04:12:30.655Z,128.00
2023-05-04T04:13:21.589Z,132.00
2023-05-04T04:14:12.517Z,130.00
2023-05-04T04:15:03.401Z,137.00
2023-05-04T04:15:54.310Z,142.00
2023-05-04T04:16:45.252Z,144.00
2023-05-04T04:17:36.114Z,145.00
2023-05-04T04:18:27.001Z,149.00
2023-05-04T04:19:17.896Z,152.00
2023-05-04T04:20:08.787Z,154.00
2023-05-04T04:20:59.678Z,160.00
2023-05-04T04:21:50.592Z,158.00
2023-05-04T04:22:41.492Z,169.00
2023-05-04T04:23:32.402Z,175.00
2023-05-04T04:24:23.283Z,165.00
2023-05-04T04:25:14.283Z,127.00
2023-05-04T04:26:05.174Z,149.00
2023-05-04T04:26:56.106Z,153.00
2023-05-04T04:27:47.000Z,188.00
2023-05-04T04:28:37.951Z,200.00
2023-05-04T04:29:28.862Z,202.00
2023-05-04T04:30:19.840Z,207.00
2023-05-04T04:31:10.833Z,211.00
2023-05-04T04:32:01.764Z,213.00
2023-05-04T04:32:52.695Z,216.00
2023-05-04T04:33:43.582Z,222.00
2023-05-04T04:34:34.497Z,228.00
2023-05-04T04:35:25.419Z,235.00
2023-05-04T04:36:16.314Z,241.00
2023-05-04T04:37:07.322Z,242.00
2023-05-04T04:37:58.235Z,250.00
2023-05-04T04:38:49.150Z,258.00
2023-05-04T04:39:40.087Z,259.00
2023-05-04T04:40:30.974Z,266.00
2023-05-04T04:41:21.881Z,274.00
2023-05-04T04:42:12.804Z,275.00
2023-05-04T04:43:03.747Z,275.00
2023-05-04T04:43:54.632Z,277.00
2023-05-04T04:44:45.547Z,283.00
2023-05-04T04:45:36.464Z,290.00
2023-05-04T04:46:27.395Z,292.00
2023-05-04T04:47:18.292Z,295.00
2023-05-04T04:48:09.257Z,301.00
2023-05-04T04:49:00.133Z,304.00
2023-05-04T04:49:51.032Z,305.00
2023-05-04T04:50:41.950Z,308.00
2023-05-04T04:51:32.857Z,309.00
2023-05-04T04:52:23.784Z,312.00
2023-05-04T04:53:14.697Z,322.00
2023-05-04T04:54:05.638Z,325.00
2023-05-04T04:54:56.551Z,327.00
2023-05-04T04:55:47.464Z,328.00
2023-05-04T04:56:38.375Z,332.00
2023-05-04T04:57:31.228Z,337.00
2023-05-04T04:58:20.312Z,343.00
2023-05-04T04:59:11.163Z,346.00
2023-05-04T05:00:02.218Z,343.00
2023-05-04T05:00:53.212Z,350.00
2023-05-04T05:01:44.108Z,347.00
2023-05-04T05:02:35.041Z,349.00
2023-05-04T05:03:25.931Z,354.00
2023-05-04T05:04:16.920Z,351.00
2023-05-04T05:05:07.969Z,357.00
2023-05-04T05:05:58.895Z,358.00
2023-05-04T05:06:49.835Z,356.00
2023-05-04T05:07:40.733Z,362.00
2023-05-04T05:08:31.639Z,358.00
2023-05-04T05:09:22.559Z,366.00
2023-05-04T05:10:13.465Z,375.00
2023-05-04T05:11:04.386Z,372.00
2023-05-04T05:11:55.306Z,373.00
2023-05-04T05:12:46.271Z,381.00
2023-05-04T05:13:37.175Z,384.00
2023-05-04T05:14:28.075Z,392.00
2023-05-04T05:15:18.983Z,394.00
2023-05-04T05:16:09.920Z,402.00
2023-05-04T05:17:01.000Z,410.00
2023-05-04T05:17:51.943Z,405.00
2023-05-04T05:18:42.844Z,414.00
2023-05-04T05:19:33.763Z,418.00
2023-05-04T05:20:24.668Z,420.00
2023-05-04T05:21:15.584Z,427.00
2023-05-04T05:22:06.497Z,427.00
2023-05-04T05:22:57.428Z,440.00
2023-05-04T05:23:48.349Z,442.00
2023-05-04T05:24:39.244Z,450.00
2023-05-04T05:25:30.158Z,456.00
2023-05-04T05:26:21.086Z,452.00
2023-05-04T05:27:12.012Z,462.00
2023-05-04T05:28:02.926Z,474.00
2023-05-04T05:28:53.864Z,484.00
2023-05-04T05:29:44.773Z,488.00
2023-05-04T05:30:35.696Z,486.00
2023-05-04T05:31:26.698Z,491.00
2023-05-04T05:32:17.782Z,494.00
2023-05-04T05:33:08.724Z,496.00
2023-05-04T05:33:59.609Z,501.00
2023-05-04T05:34:50.528Z,496.00
2023-05-04T05:35:41.443Z,503.00
2023-05-04T05:36:32.349Z,504.00
2023-05-04T05:37:23.292Z,504.00
2023-05-04T05:38:14.206Z,508.00
2023-05-04T05:39:05.118Z,505.00
2023-05-04T05:39:56.036Z,499.00
2023-05-04T05:40:46.945Z,504.00
2023-05-04T05:41:37.866Z,501.00
2023-05-04T05:42:28.768Z,494.00
2023-05-04T05:43:19.691Z,489.00
2023-05-04T05:44:12.969Z,489.00
2023-05-04T05:45:01.594Z,497.00
2023-05-04T05:45:52.574Z,495.00
2023-05-04T05:46:43.467Z,492.00
2023-05-04T05:47:34.502Z,491.00
2023-05-04T05:48:25.367Z,487.00
2023-05-04T05:49:16.259Z,485.00
2023-05-04T05:50:07.381Z,491.00
2023-05-04T05:50:57.846Z,490.00
2023-05-04T05:51:48.760Z,489.00
2023-05-04T05:52:39.696Z,488.00
2023-05-04T05:53:30.595Z,495.00
2023-05-04T05:54:21.518Z,495.00
2023-05-04T05:55:12.460Z,497.00
2023-05-04T05:56:03.363Z,500.00
2023-05-04T05:56:54.284Z,506.00
2023-05-04T05:57:45.202Z,504.00
2023-05-04T05:58:36.112Z,513.00
2023-05-04T05:59:27.043Z,512.00
2023-05-04T06:00:17.938Z,517.00
2023-05-04T06:01:08.857Z,518.00
2023-05-04T06:01:59.767Z,519.00
2023-05-04T06:02:50.772Z,526.00
2023-05-04T06:03:41.807Z,524.00
2023-05-04T06:04:32.838Z,534.00
2023-05-04T06:05:23.693Z,541.00
2023-05-04T06:06:14.606Z,542.00
2023-05-04T06:07:05.536Z,546.00
2023-05-04T06:07:56.446Z,554.00
2023-05-04T06:08:47.367Z,557.00
2023-05-04T06:09:38.284Z,561.00
2023-05-04T06:10:29.258Z,564.00
2023-05-04T06:11:20.133Z,565.00
2023-05-04T06:12:11.056Z,569.00
2023-05-04T06:13:02.006Z,575.00
2023-05-04T06:13:52.909Z,577.00
2023-05-04T06:14:43.859Z,578.00
2023-05-04T06:15:34.738Z,585.00
2023-05-04T06:16:25.736Z,582.00
2023-05-04T06:17:16.658Z,588.00
2023-05-04T06:18:07.600Z,591.00
2023-05-04T06:18:58.492Z,579.00
2023-05-04T06:19:50.928Z,594.00
2023-05-04T06:20:40.039Z,604.00
2023-05-04T06:21:30.944Z,611.00
2023-05-04T06:22:21.868Z,616.00
2023-05-04T06:23:12.776Z,626.00
2023-05-04T06:24:03.696Z,632.00
2023-05-04T06:24:58.942Z,641.00
2023-05-04T06:25:46.517Z,652.00
2023-05-04T06:26:36.260Z,661.00
2023-05-04T06:27:27.168Z,673.00
2023-05-04T06:28:18.064Z,678.00
2023-05-04T06:29:08.978Z,650.00
2023-05-04T06:30:00.009Z,642.00
2023-05-04T06:30:50.900Z,640.00
2023-05-04T06:31:41.962Z,675.00
2023-05-04T06:32:32.901Z,676.00
2023-05-04T06:33:23.793Z,682.00
2023-05-04T06:34:14.699Z,690.00
2023-05-04T06:35:05.615Z,703.00
2023-05-04T06:35:56.531Z,705.00
2023-05-04T06:36:47.452Z,714.00
2023-05-04T06:37:38.403Z,713.00
2023-05-04T06:38:29.308Z,723.00
2023-05-04T06:39:20.226Z,725.00
2023-05-04T06:40:11.328Z,724.00
2023-05-04T06:41:01.900Z,731.00
2023-05-04T06:41:52.774Z,734.00
2023-05-04T06:42:43.715Z,740.00
2023-05-04T06:43:34.649Z,729.00
2023-05-04T06:44:25.555Z,713.00
2023-05-04T06:45:16.482Z,718.00
2023-05-04T06:46:07.377Z,723.00
2023-05-04T06:46:58.298Z,738.00
2023-05-04T06:47:49.270Z,746.00
2023-05-04T06:48:40.142Z,749.00
2023-05-04T06:49:31.068Z,741.00
2023-05-04T06:50:21.969Z,727.00
2023-05-04T06:51:12.899Z,769.00
2023-05-04T06:52:03.796Z,784.00
2023-05-04T06:52:54.715Z,782.00
2023-05-04T06:53:45.627Z,780.00
2023-05-04T06:54:36.541Z,781.00
2023-05-04T06:55:27.472Z,791.00
2023-05-04T06:56:18.366Z,799.00
2023-05-04T06:57:09.293Z,804.00
2023-05-04T06:58:00.212Z,809.00
2023-05-04T06:58:51.120Z,814.00
2023-05-04T06:59:42.067Z,808.00
2023-05-04T07:00:32.981Z,809.00
2023-05-04T07:01:23.961Z,811.00
2023-05-04T07:02:14.846Z,809.00
2023-05-04T07:03:05.808Z,816.00
2023-05-04T07:03:56.749Z,824.00
2023-05-04T07:04:47.606Z,832.00
2023-05-04T07:05:38.540Z,850.00
2023-05-04T07:06:29.464Z,858.00
2023-05-04T07:07:20.353Z,874.00
2023-05-04T07:08:11.278Z,890.00
2023-05-04T07:09:02.176Z,895.00
2023-05-04T07:09:53.112Z,898.00
2023-05-04T07:10:44.015Z,907.00
2023-05-04T07:11:34.929Z,911.00
2023-05-04T07:12:25.843Z,912.00
2023-05-04T07:13:16.812Z,902.00
2023-05-04T07:14:09.872Z,902.00
2023-05-04T07:14:58.616Z,906.00
2023-05-04T07:15:49.520Z,915.00
2023-05-04T07:16:40.539Z,884.00
2023-05-04T07:17:31.556Z,892.00
2023-05-04T07:18:22.440Z,896.00
2023-05-04T07:19:13.356Z,907.00
2023-05-04T07:20:04.560Z,908.00
2023-05-04T07:21:01.727Z,901.00
2023-05-04T07:21:47.684Z,896.00
2023-05-04T07:22:36.743Z,903.00
2023-05-04T07:23:27.675Z,905.00
2023-05-04T07:24:18.569Z,907.00
2023-05-04T07:25:09.477Z,919.00
2023-05-04T07:26:00.392Z,926.00
2023-05-04T07:26:51.308Z,927.00
2023-05-04T07:27:42.239Z,924.00
2023-05-04T07:28:33.171Z,929.00
2023-05-04T07:29:24.076Z,935.00
2023-05-04T07:30:14.988Z,933.00
2023-05-04T07:31:06.076Z,940.00
2023-05-04T07:31:56.925Z,942.00
2023-05-04T07:32:47.918Z,942.00
2023-05-04T07:33:38.800Z,957.00
2023-05-04T07:34:41.988Z,959.00
2023-05-04T07:35:21.608Z,969.00
2023-05-04T07:36:11.306Z,991.00
2023-05-04T07:37:02.224Z,1014.00
2023-05-04T07:37:53.162Z,1037.00
2023-05-04T07:38:44.073Z,1052.00
2023-05-04T07:39:35.004Z,1068.00
2023-05-04T07:40:25.972Z,1077.00
2023-05-04T07:41:16.869Z,1080.00
2023-05-04T07:42:08.022Z,1084.00
2023-05-04T07:42:58.999Z,1076.00
2023-05-04T07:43:49.945Z,1070.00
2023-05-04T07:44:40.858Z,1058.00
2023-05-04T07:45:31.780Z,1055.00
2023-05-04T07:46:22.818Z,1070.00
2023-05-04T07:47:13.725Z,1093.00
2023-05-04T07:48:04.700Z,1105.00
2023-05-04T07:48:55.583Z,1092.00
2023-05-04T07:49:46.493Z,1094.00
2023-05-04T07:50:37.425Z,1125.00
2023-05-04T07:51:28.348Z,1155.00
2023-05-04T07:52:19.306Z,1172.00
2023-05-04T07:53:10.226Z,1187.00
2023-05-04T07:54:01.162Z,1204.00
2023-05-04T07:54:52.081Z,1225.00
2023-05-04T07:55:43.007Z,1237.00
2023-05-04T07:56:33.945Z,1258.00
2023-05-04T07:57:24.868Z,1274.00
2023-05-04T07:58:15.817Z,1272.00
2023-05-04T07:59:06.758Z,1273.00
2023-05-04T07:59:57.679Z,1281.00
2023-05-04T08:00:48.611Z,1306.00
2023-05-04T08:01:41.273Z,1322.00
2023-05-04T08:02:30.452Z,1321.00
2023-05-04T08:03:21.474Z,1321.00
2023-05-04T08:04:12.359Z,1321.00
2023-05-04T08:05:03.294Z,1321.00
2023-05-04T08:05:54.226Z,1304.00
2023-05-04T08:06:45.152Z,1279.00
2023-05-04T08:07:36.088Z,1266.00
2023-05-04T08:08:27.013Z,1260.00
2023-05-04T08:09:18.222Z,1268.00
2023-05-04T08:10:09.072Z,1273.00
2023-05-04T08:11:15.740Z,1278.00
2023-05-04T08:11:51.928Z,1300.00
2023-05-04T08:12:41.755Z,1333.00
2023-05-04T08:13:32.677Z,1375.00
2023-05-04T08:14:23.619Z,1409.00
2023-05-04T08:15:14.522Z,1415.00
2023-05-04T08:16:05.453Z,1421.00
2023-05-04T08:16:56.417Z,1423.00
2023-05-04T08:17:47.330Z,1420.00
2023-05-04T08:18:38.263Z,1418.00
2023-05-04T08:19:29.181Z,1414.00
2023-05-04T08:20:21.659Z,1409.00
2023-05-04T08:21:10.774Z,1403.00
2023-05-04T08:22:01.683Z,1397.00
2023-05-04T08:22:52.618Z,1393.00
2023-05-04T08:23:43.555Z,1389.00
2023-05-04T08:24:34.465Z,1387.00
2023-05-04T08:25:25.407Z,1376.00
2023-05-04T08:26:16.345Z,1381.00
2023-05-04T08:27:08.810Z,1383.00
2023-05-04T08:27:58.135Z,1388.00
2023-05-04T08:28:49.077Z,1388.00
2023-05-04T08:29:39.996Z,1379.00
2023-05-04T08:30:30.920Z,1367.00
2023-05-04T08:31:21.900Z,1361.00
2023-05-04T08:32:12.828Z,1366.00
2023-05-04T08:33:03.776Z,1369.00
2023-05-04T08:33:54.663Z,1379.00
2023-05-04T08:34:45.587Z,1368.00
2023-05-04T08:35:36.543Z,1382.00
2023-05-04T08:36:27.476Z,1413.00
2023-05-04T08:37:18.407Z,1447.00
2023-05-04T08:38:09.338Z,1471.00
2023-05-04T08:39:00.264Z,1497.00
2023-05-04T08:39:51.206Z,1508.00
2023-05-04T08:40:42.122Z,1520.00
2023-05-04T08:41:33.051Z,1543.00
2023-05-04T08:42:23.981Z,1585.00
2023-05-04T08:43:14.930Z,1606.00
2023-05-04T08:44:05.873Z,1638.00
2023-05-04T08:44:56.821Z,1662.00
2023-05-04T08:45:47.803Z,1690.00
2023-05-04T08:46:38.712Z,1705.00
2023-05-04T08:47:29.737Z,1721.00
2023-05-04T08:48:20.694Z,1739.00
2023-05-04T08:49:11.616Z,1761.00
2023-05-04T08:50:02.553Z,1755.00
2023-05-04T08:50:53.489Z,1781.00
2023-05-04T08:51:44.436Z,1794.00
2023-05-04T08:52:35.381Z,1789.00
2023-05-04T08:53:26.330Z,1813.00
2023-05-04T08:54:17.269Z,1821.00
2023-05-04T08:55:08.206Z,1823.00
2023-05-04T08:55:59.154Z,1834.00
2023-05-04T08:56:50.091Z,1851.00
2023-05-04T08:57:41.050Z,1851.00
2023-05-04T08:58:32.002Z,1868.00
2023-05-04T08:59:22.936Z,1829.00
2023-05-04T09:00:13.885Z,1835.00
2023-05-04T09:01:04.851Z,1846.00
2023-05-04T09:01:55.781Z,1878.00
2023-05-04T09:02:46.886Z,1874.00
2023-05-04T09:03:37.938Z,1910.00
2023-05-04T09:04:29.759Z,1982.00
2023-05-04T09:05:19.546Z,2069.00
2023-05-04T09:06:10.485Z,2141.00
2023-05-04T09:07:01.447Z,2168.00
2023-05-04T09:07:52.382Z,2277.00
2023-05-04T09:08:43.326Z,2385.00
2023-05-04T09:09:34.260Z,2491.00
2023-05-04T09:10:26.378Z,2550.00
2023-05-04T09:11:16.020Z,2560.00
2023-05-04T09:12:06.968Z,2556.00
2023-05-04T09:12:57.910Z,2506.00
2023-05-04T09:13:48.840Z,2517.00
2023-05-04T09:14:39.774Z,2503.00
2023-05-04T09:15:30.722Z,2490.00
2023-05-04T09:16:21.669Z,2498.00
2023-05-04T09:17:12.660Z,2482.00
2023-05-04T09:18:03.718Z,2531.00
2023-05-04T09:18:54.622Z,2408.00
2023-05-04T09:19:45.559Z,2524.00
2023-05-04T09:20:36.498Z,2472.00
2023-05-04T09:21:27.442Z,2451.00
2023-05-04T09:22:18.389Z,2359.00
2023-05-04T09:23:09.449Z,2296.00
2023-05-04T09:24:00.396Z,2229.00
2023-05-04T09:24:51.317Z,2285.00
2023-05-04T09:25:42.268Z,2244.00
2023-05-04T09:26:33.215Z,2249.00
2023-05-04T09:27:24.161Z,2209.00
2023-05-04T09:28:15.097Z,2150.00
2023-05-04T09:29:06.048Z,1978.00
2023-05-04T09:29:56.969Z,1872.00
2023-05-04T09:30:47.988Z,1832.00
2023-05-04T09:31:38.926Z,1776.00
2023-05-04T09:32:29.875Z,1737.00
2023-05-04T09:33:20.806Z,1725.00
2023-05-04T09:34:11.733Z,1751.00
2023-05-04T09:35:02.964Z,1820.00
2023-05-04T09:35:53.408Z,1897.00
2023-05-04T09:36:44.345Z,1952.00
2023-05-04T09:37:35.285Z,1961.00
2023-05-04T09:38:26.213Z,1969.00
2023-05-04T09:39:17.163Z,2010.00
2023-05-04T09:40:08.092Z,2015.00
2023-05-04T09:40:59.042Z,2034.00
2023-05-04T09:41:49.974Z,2053.00
2023-05-04T09:42:40.921Z,2092.00
2023-05-04T09:43:31.853Z,2141.00
2023-05-04T09:44:30.028Z,2149.00
2023-05-04T09:45:13.595Z,2195.00
2023-05-04T09:46:04.552Z,2236.00
2023-05-04T09:46:55.452Z,2254.00
2023-05-04T09:47:46.449Z,2288.00
2023-05-04T09:48:37.387Z,2274.00
2023-05-04T09:49:28.270Z,2268.00
2023-05-04T09:50:20.921Z,2269.00
2023-05-04T09:51:10.253Z,2315.00
2023-05-04T09:52:01.187Z,2328.00
2023-05-04T09:52:52.133Z,2363.00
2023-05-04T09:53:43.082Z,2357.00
2023-05-04T09:54:34.008Z,2387.00
2023-05-04T09:55:24.955Z,2427.00
2023-05-04T09:56:15.884Z,2434.00
2023-05-04T09:57:06.818Z,2405.00
2023-05-04T09:57:57.751Z,2378.00
2023-05-04T09:58:48.676Z,2361.00
2023-05-04T09:59:39.651Z,2303.00
2023-05-04T10:00:30.553Z,2299.00
2023-05-04T10:01:21.542Z,2312.00
2023-05-04T10:02:21.720Z,2280.00
2023-05-04T10:03:04.472Z,2252.00
2023-05-04T10:03:54.163Z,2224.00
2023-05-04T10:04:45.064Z,2204.00
2023-05-04T10:05:36.028Z,2173.00
2023-05-04T10:06:26.924Z,2128.00
2023-05-04T10:07:17.871Z,2092.00
2023-05-04T10:08:08.789Z,2042.00
2023-05-04T10:08:59.729Z,2031.00
2023-05-04T10:09:50.665Z,2019.00
2023-05-04T10:10:41.589Z,1995.00
2023-05-04T10:11:32.533Z,1971.00
2023-05-04T10:12:23.468Z,1953.00
2023-05-04T10:13:14.405Z,1935.00
2023-05-04T10:14:05.331Z,1895.00
2023-05-04T10:14:56.263Z,1888.00
2023-05-04T10:15:47.220Z,1890.00
2023-05-04T10:16:38.268Z,1897.00
2023-05-04T10:17:29.293Z,1910.00
2023-05-04T10:18:20.244Z,1915.00
2023-05-04T10:19:11.262Z,1900.00
2023-05-04T10:20:02.131Z,1878.00
2023-05-04T10:20:53.053Z,1868.00
2023-05-04T10:21:44.003Z,1883.00
2023-05-04T10:22:34.937Z,1870.00
2023-05-04T10:23:25.888Z,1879.00
2023-05-04T10:24:16.835Z,1891.00
2023-05-04T10:25:07.856Z,1888.00
2023-05-04T10:25:58.756Z,1909.00
2023-05-04T10:26:49.691Z,1935.00
2023-05-04T10:27:40.646Z,1934.00
2023-05-04T10:28:31.559Z,1919.00
2023-05-04T10:29:23.441Z,1902.00
2023-05-04T10:30:13.580Z,1902.00
2023-05-04T10:31:04.530Z,1903.00
2023-05-04T10:31:55.538Z,1923.00
2023-05-04T10:32:46.575Z,1928.00
2023-05-04T10:33:37.483Z,1923.00
2023-05-04T10:34:28.442Z,1915.00
2023-05-04T10:35:19.354Z,1951.00
2023-05-04T10:36:10.287Z,1968.00
2023-05-04T10:37:01.217Z,1953.00
2023-05-04T10:37:52.147Z,1959.00
2023-05-04T10:38:43.121Z,1955.00
2023-05-04T10:39:34.096Z,1953.00
2023-05-04T10:40:24.982Z,1925.00
2023-05-04T10:41:15.942Z,1900.00
2023-05-04T10:42:06.848Z,1940.00
2023-05-04T10:42:57.781Z,1995.00